Nederland, CO

6:30 AM MDT on October 02, 2014 (GMT -0600)
Jeffco | Change Station
CLOSE
Current Station
Airport
Location: Broomfield,
Elevation: 5656 ft
Nearby Weather Stations

Elev 5656 ft 39.90 °N, 105.10 °W | Updated 35 minutes ago

Partly Cloudy
Partly Cloudy
41 °F
Feels Like 41 °F
N
0
Wind Variable Wind from North

Today
High -- | Low -- °F
--% Chance of Precip.
Yesterday
High -- | Low -- °F
Precip. -- in
6:59 AM 6:42 PM
First Quarter, 58% visible
Pressure 30.14 in
Visibility 10.0 miles
Clouds Clear
Dew Point 37 °F
Humidity 87%
Rainfall 0.00 in
Snow Depth 1 in , 4 in , 1 in
UV 0 out of 12
Pollen 3.00 out of 12
PM2.5 Good
Flu Activity Not available.
METAR KBJC 021155Z AUTO 00000KT 10SM CLR 05/03 A3014 RMK AO2

More Conditions Fewer Conditions

Pressure 30.14 in
Visibility 10.0 miles
Clouds Clear
Dew Point 37 °F
Humidity 87%
Rainfall 0.00 in
Snow Depth 1 in , 4 in , 1 in
UV 0 out of 12
Pollen 3.00 out of 12
PM2.5 Good
Flu Activity Not available.
METAR KBJC 021155Z AUTO 00000KT 10SM CLR 05/03 A3014 RMK AO2

More Conditions Fewer Conditions

10-Day Weather Forecast

Almanac

Astronomy

Oct. 02, 2014 Rise Set
Actual Time 6:59 AM MDT 6:42 PM MDT
Civil Twilight 6:32 AM MDT 7:09 PM MDT
Nautical Twilight 6:00 AM MDT 7:40 PM MDT
Astronomical Twilight 5:29 AM MDT 8:12 PM MDT
Moon 2:50 PM MDT 12:19 AM MDT
Length of Visible Light 12h 37m
Length of Day
11h 43m
Tomorrow will be 2m 35s shorter.
First Quarter, 58% of the Moon is Illuminated
Today
First Quarter
Oct 8
Full
Oct 15
Last Quarter
Oct 23
New
Oct 30
First Quarter

Today's Extremes

State Highs State Lows

Community

WunderPhotos

Upload Photos

1,758,223 photos uploaded!

WunderBlogs® & News

Nearby

Air Quality

  Air Quality AQ Index Pollutant
Yesterday Good
OZONE
Yesterday Good
PM10
Current Good
PM2.5
Thursday Good
OZONE
Thursday Good
PM2.5

Snow Depth

Station Depth Elevation
Sharkstooth 1 in 10720 ft
Jones Pass 4 in 10400 ft
Spud Mountain 1 in 10660 ft
Rawah 4 in 9020 ft
Ivanhoe 3 in 10400 ft

Earthquake Activity

City Distance Mag. Time & Date
No recent earthquake activity has been reported nearby.
Minimum magnitude displayed is 2.5.

Coastal Water Temperatures

Place Temperature
No Stations Reporting

Nearby Weather Stations